Time;durP1;ratioP1;P1;durP2;ratioP2;P2;SDS_P1;SDS_P2;PMS_P1;PMS_P2;Temp;Humidity;BMP_temperature;BMP_pressure;BME280_temperature;BME280_humidity;BME280_pressure;Samples;Min_cycle;Max_cycle;Signal;HPM_P1;HPM_P2
2022/06/24 00:07:24;;;;;;;2.92;0.20;;;20.30;48.90;;;;;;20920095;28;20157;-61
2022/06/24 00:17:28;;;;;;;1.25;0.20;;;20.10;49.60;;;;;;20917280;28;20103;-63
2022/06/24 00:27:30;;;;;;;1.95;0.40;;;19.90;50.70;;;;;;20918196;28;20045;-61
2022/06/24 00:37:33;;;;;;;0.88;0.35;;;19.80;50.70;;;;;;20931206;28;20045;-63
2022/06/24 00:47:37;;;;;;;0.85;0.30;;;19.70;51.30;;;;;;20925022;28;20140;-73
2022/06/24 00:57:39;;;;;;;0.43;0.30;;;19.50;51.80;;;;;;20916839;28;20098;-61
2022/06/24 01:07:41;;;;;;;1.40;0.30;;;19.40;52.30;;;;;;20921428;28;20044;-74
2022/06/24 01:17:43;;;;;;;2.40;0.40;;;19.40;52.40;;;;;;20916368;28;20095;-71
2022/06/24 01:27:45;;;;;;;0.82;0.45;;;19.30;52.70;;;;;;20914940;28;20148;-62
2022/06/24 01:37:48;;;;;;;2.35;0.45;;;19.10;53.40;;;;;;20919652;28;20171;-65
2022/06/24 01:47:50;;;;;;;4.47;0.47;;;19.10;53.20;;;;;;20914368;28;20052;-69
2022/06/24 01:57:55;;;;;;;0.35;0.20;;;19.00;53.40;;;;;;20913409;28;20081;-63
2022/06/24 02:08:09;;;;;;;0.30;0.25;;;18.80;53.90;;;;;;20912837;28;20493;-64
2022/06/24 02:18:15;;;;;;;0.68;0.30;;;18.80;54.00;;;;;;20909907;28;20060;-62
2022/06/24 02:28:21;;;;;;;0.63;0.30;;;18.70;54.10;;;;;;20911152;28;20079;-65
2022/06/24 02:38:27;;;;;;;0.57;0.30;;;18.60;54.40;;;;;;20912801;28;20417;-69
2022/06/24 02:48:34;;;;;;;27.60;18.73;;;18.60;54.40;;;;;;20913507;28;20072;-70
2022/06/24 02:58:40;;;;;;;8.20;5.90;;;18.60;54.70;;;;;;20929097;28;20064;-63
2022/06/24 03:08:43;;;;;;;3.45;1.10;;;18.50;55.20;;;;;;20924193;28;20064;-63
2022/06/24 03:18:46;;;;;;;1.77;0.60;;;18.50;55.60;;;;;;20923505;28;20056;-63
2022/06/24 03:28:48;;;;;;;1.42;0.65;;;18.20;56.50;;;;;;20922727;28;20085;-62
2022/06/24 03:38:50;;;;;;;3.67;0.70;;;18.20;57.10;;;;;;20923916;28;20045;-61
2022/06/24 03:48:53;;;;;;;2.10;1.05;;;18.20;57.20;;;;;;20923060;28;20045;-62
2022/06/24 03:58:55;;;;;;;1.48;0.88;;;18.20;57.30;;;;;;20921407;28;20114;-63
2022/06/24 04:08:57;;;;;;;1.25;0.50;;;18.10;57.40;;;;;;20919799;28;20382;-63
2022/06/24 04:18:59;;;;;;;2.60;0.73;;;18.00;57.50;;;;;;20920090;28;20060;-66
2022/06/24 04:29:01;;;;;;;3.97;0.70;;;17.80;58.40;;;;;;20919498;28;20059;-62
2022/06/24 04:39:03;;;;;;;2.55;0.70;;;17.60;59.30;;;;;;20916140;28;20049;-67
2022/06/24 04:49:08;;;;;;;1.70;0.60;;;17.50;59.80;;;;;;20917580;28;20053;-70
2022/06/24 04:59:10;;;;;;;2.92;0.60;;;18.00;59.60;;;;;;20914957;28;20049;-67
2022/06/24 05:09:12;;;;;;;2.42;0.60;;;;;;;;;;20916506;28;20057;-73
2022/06/24 05:19:14;;;;;;;1.27;0.63;;;18.60;58.70;;;;;;20914161;28;20170;-70
2022/06/24 05:29:16;;;;;;;1.55;0.57;;;17.50;61.00;;;;;;20914812;28;20103;-71
2022/06/24 05:39:18;;;;;;;2.70;1.00;;;18.40;59.90;;;;;;20914630;28;20048;-73
2022/06/24 05:49:21;;;;;;;3.28;0.98;;;17.70;61.20;;;;;;20913644;28;20095;-70
2022/06/24 05:59:22;;;;;;;3.67;1.00;;;17.70;61.50;;;;;;20934146;28;20056;-70
2022/06/24 06:09:24;;;;;;;2.03;0.98;;;17.80;61.20;;;;;;20913710;28;20139;-75
2022/06/24 06:19:26;;;;;;;4.07;1.00;;;18.00;60.80;;;;;;20911691;28;20061;-71
2022/06/24 06:29:28;;;;;;;2.65;1.00;;;18.00;61.00;;;;;;20921137;28;20409;-73
2022/06/24 06:39:30;;;;;;;3.75;1.95;;;18.10;61.00;;;;;;20936934;28;20485;-74
2022/06/24 06:49:34;;;;;;;3.38;1.58;;;18.20;60.80;;;;;;20941605;28;20053;-62
2022/06/24 06:59:36;;;;;;;3.60;1.17;;;18.40;60.00;;;;;;20927641;28;20409;-62
2022/06/24 07:09:38;;;;;;;2.33;0.75;;;19.60;57.00;;;;;;20922815;28;20044;-60
2022/06/24 07:19:40;;;;;;;2.80;1.10;;;21.40;52.00;;;;;;20921587;28;20107;-60
2022/06/24 07:29:42;;;;;;;1.73;0.75;;;22.10;50.60;;;;;;20916369;28;20191;-67
2022/06/24 07:39:43;;;;;;;6.22;1.38;;;23.60;48.20;;;;;;20842368;28;20041;-64
2022/06/24 07:49:45;;;;;;;1.13;0.50;;;24.00;46.70;;;;;;20854021;28;20136;-70
2022/06/24 07:59:47;;;;;;;2.22;0.77;;;25.90;42.30;;;;;;20925269;28;20457;-65
2022/06/24 08:09:49;;;;;;;1.38;0.63;;;25.50;43.50;;;;;;20921077;28;20052;-70
2022/06/24 08:19:51;;;;;;;3.10;0.80;;;25.70;42.80;;;;;;20919709;28;20064;-63
2022/06/24 08:29:53;;;;;;;1.25;0.70;;;25.90;41.90;;;;;;20920731;28;20053;-72
2022/06/24 08:39:55;;;;;;;1.67;0.75;;;25.60;42.10;;;;;;20918756;28;20056;-60
2022/06/24 08:49:57;;;;;;;1.73;0.52;;;25.80;41.20;;;;;;20916030;28;20053;-68
2022/06/24 08:59:59;;;;;;;1.05;0.43;;;25.70;41.00;;;;;;20918480;28;20049;-60
2022/06/24 09:10:06;;;;;;;1.75;0.55;;;26.00;40.20;;;;;;20918230;28;20098;-60
2022/06/24 09:20:14;;;;;;;3.63;1.10;;;26.00;39.60;;;;;;20915218;28;20554;-64
2022/06/24 09:30:18;;;;;;;1.48;0.80;;;25.70;39.60;;;;;;20912297;28;20490;-67
2022/06/24 09:40:21;;;;;;;5.28;3.20;;;25.70;39.60;;;;;;20916858;28;20085;-66
2022/06/24 09:50:23;;;;;;;1.55;0.80;;;25.30;39.90;;;;;;20913430;28;20049;-66
2022/06/24 10:00:41;;;;;;;4.47;2.90;;;25.50;39.20;;;;;;20915401;28;20057;-67
2022/06/24 10:10:53;;;;;;;1.13;0.68;;;25.30;38.70;;;;;;20931103;28;20471;-68
2022/06/24 10:21:07;;;;;;;1.33;0.60;;;25.40;38.30;;;;;;20928544;28;20576;-67
2022/06/24 10:31:09;;;;;;;0.80;0.45;;;25.50;37.70;;;;;;20927947;28;20490;-71
2022/06/24 10:41:11;;;;;;;1.50;0.60;;;25.60;37.10;;;;;;20926300;28;20511;-67
2022/06/24 10:51:15;;;;;;;2.70;0.90;;;25.40;37.00;;;;;;20925939;28;20477;-69
2022/06/24 11:01:17;;;;;;;1.50;0.57;;;;;;;;;;20956798;28;20451;-68
2022/06/24 11:11:32;;;;;;;1.63;0.47;;;26.60;35.70;;;;;;20924273;28;20049;-68
2022/06/24 11:21:48;;;;;;;1.63;0.80;;;25.90;36.50;;;;;;20924980;28;20083;-70
2022/06/24 11:31:50;;;;;;;0.90;0.57;;;25.60;37.30;;;;;;20922246;28;20090;-65
2022/06/24 11:41:52;;;;;;;3.80;0.80;;;25.80;36.20;;;;;;20921291;28;20059;-65
2022/06/24 11:51:54;;;;;;;2.10;0.63;;;25.60;36.50;;;;;;20936658;28;20049;-67
2022/06/24 12:01:58;;;;;;;2.25;1.05;;;25.60;36.80;;;;;;20937851;28;20151;-69
2022/06/24 12:12:11;;;;;;;1.58;0.70;;;26.00;36.60;;;;;;20920724;28;20128;-70
2022/06/24 12:22:14;;;;;;;2.78;1.00;;;25.80;36.20;;;;;;20917956;28;20059;-65
2022/06/24 12:32:15;;;;;;;3.10;0.57;;;25.60;36.90;;;;;;20918290;28;20095;-69
2022/06/24 12:42:22;;;;;;;2.17;0.60;;;26.00;35.80;;;;;;20949371;28;20088;-71
2022/06/24 12:52:33;;;;;;;2.85;0.80;;;26.20;35.00;;;;;;20916783;28;20106;-70
2022/06/24 13:02:37;;;;;;;2.42;0.70;;;26.10;35.20;;;;;;20916207;28;20508;-67
2022/06/24 13:12:39;;;;;;;2.00;0.70;;;25.90;35.20;;;;;;20916358;28;20049;-67
2022/06/24 13:22:42;;;;;;;3.38;1.15;;;26.30;34.80;;;;;;20916681;28;20509;-68
2022/06/24 13:32:46;;;;;;;1.92;0.50;;;26.50;34.20;;;;;;20913626;28;20049;-69
2022/06/24 13:42:48;;;;;;;1.23;0.52;;;26.60;33.90;;;;;;20946724;28;20052;-69
2022/06/24 13:52:50;;;;;;;2.17;1.00;;;26.50;33.80;;;;;;20921656;28;20087;-67
2022/06/24 14:02:52;;;;;;;2.42;0.50;;;26.90;33.60;;;;;;20913203;28;20045;-66
2022/06/24 14:12:56;;;;;;;1.00;0.70;;;27.70;32.10;;;;;;20913837;28;20492;-66
2022/06/24 14:33:19;;;;;;;3.45;0.98;;;27.20;32.40;;;;;;20918262;28;20462;-65
2022/06/24 14:43:21;;;;;;;0.98;0.50;;;27.40;32.00;;;;;;20915422;28;20056;-69
2022/06/24 14:53:23;;;;;;;1.08;0.63;;;27.70;31.20;;;;;;20926745;28;20079;-70
2022/06/24 15:03:26;;;;;;;1.23;0.63;;;27.20;31.70;;;;;;20959423;28;20048;-72
2022/06/24 15:13:28;;;;;;;1.67;0.47;;;27.90;30.30;;;;;;20926319;28;20077;-70
2022/06/24 15:23:30;;;;;;;2.55;0.47;;;28.20;30.30;;;;;;20924383;28;20485;-70
2022/06/24 15:33:32;;;;;;;1.50;0.70;;;27.50;31.40;;;;;;20923924;28;20402;-64
2022/06/24 15:43:34;;;;;;;1.60;0.90;;;27.30;31.50;;;;;;20923347;28;20095;-62
2022/06/24 15:53:37;;;;;;;1.65;1.10;;;27.20;31.60;;;;;;20924088;28;20575;-64
2022/06/24 16:03:39;;;;;;;2.20;0.88;;;27.20;31.70;;;;;;20925825;28;20124;-63
2022/06/24 16:13:41;;;;;;;2.40;0.70;;;27.20;31.70;;;;;;20920518;28;20049;-70
2022/06/24 16:23:42;;;;;;;3.55;1.30;;;27.30;31.70;;;;;;20919949;28;20478;-60
2022/06/24 16:33:46;;;;;;;1.55;1.08;;;27.30;31.50;;;;;;20920194;28;20053;-61
2022/06/24 16:43:48;;;;;;;3.75;1.10;;;27.40;31.40;;;;;;20920268;28;20099;-70
2022/06/24 16:53:49;;;;;;;1.88;0.95;;;27.40;31.30;;;;;;20919336;28;20490;-61
2022/06/24 17:03:51;;;;;;;1.33;0.77;;;27.30;31.00;;;;;;20914512;28;20405;-60
2022/06/24 17:13:53;;;;;;;1.27;0.70;;;27.20;30.90;;;;;;20948175;28;20045;-68
2022/06/24 17:23:56;;;;;;;0.75;0.50;;;27.30;30.70;;;;;;20915107;28;20057;-62
2022/06/24 17:33:58;;;;;;;1.00;0.50;;;27.10;30.70;;;;;;20913606;28;20119;-64
2022/06/24 17:44:00;;;;;;;2.15;0.90;;;;;;;;;;20913106;28;20084;-69
2022/06/24 17:54:02;;;;;;;0.88;0.50;;;;;;;;;;20914068;28;20049;-64
2022/06/24 18:04:04;;;;;;;1.52;0.80;;;;;;;;;;20916387;28;20056;-75
2022/06/24 18:14:06;;;;;;;2.28;0.80;;;;;;;;;;20912057;28;20115;-74
2022/06/24 18:24:08;;;;;;;3.17;0.80;;;;;;;;;;20920761;28;20440;-74
2022/06/24 18:34:11;;;;;;;4.63;0.93;;;;;;;;;;20927259;28;20056;-66
2022/06/24 18:44:14;;;;;;;2.30;0.57;;;;;;;;;;20927398;28;20382;-67
2022/06/24 18:54:16;;;;;;;3.38;1.27;;;;;;;;;;20927094;28;20045;-68
2022/06/24 19:04:18;;;;;;;2.55;1.30;;;;;;;;;;20926059;28;20053;-69
2022/06/24 19:14:20;;;;;;;3.95;2.13;;;27.80;28.40;;;;;;20926612;28;20099;-67
2022/06/24 19:24:22;;;;;;;2.60;1.10;;;;;;;;;;20925609;28;20508;-68
2022/06/24 19:34:24;;;;;;;2.10;1.00;;;;;;;;;;20925371;28;20114;-69
2022/06/24 19:44:26;;;;;;;2.90;1.30;;;27.00;28.80;;;;;;20924202;28;20044;-70
2022/06/24 19:54:29;;;;;;;1.10;0.75;;;;;;;;;;20922648;28;20101;-69
2022/06/24 20:14:51;;;;;;;2.20;1.13;;;25.50;30.60;;;;;;20920995;28;20045;-68
2022/06/24 20:24:53;;;;;;;4.05;1.00;;;25.30;30.40;;;;;;20919470;28;20061;-70
2022/06/24 20:34:55;;;;;;;3.00;1.40;;;25.20;30.60;;;;;;20917617;28;20056;-68
2022/06/24 20:44:57;;;;;;;3.75;1.02;;;25.10;30.70;;;;;;20917690;28;20532;-68
2022/06/24 20:54:59;;;;;;;3.90;1.50;;;24.90;30.90;;;;;;20916547;28;20075;-70
2022/06/24 21:05:03;;;;;;;4.75;1.80;;;24.80;31.00;;;;;;20949041;28;20429;-70
2022/06/24 21:15:05;;;;;;;3.47;2.00;;;;;;;;;;20946292;28;20048;-66
2022/06/24 21:25:08;;;;;;;2.30;1.40;;;25.40;30.70;;;;;;20913745;28;20497;-68
2022/06/24 21:35:10;;;;;;;2.83;1.38;;;;;;;;;;20914190;28;20045;-68
2022/06/24 21:45:13;;;;;;;1.60;1.00;;;25.40;31.10;;;;;;20915138;28;20061;-67
2022/06/24 21:55:15;;;;;;;1.92;1.00;;;25.10;32.30;;;;;;20912394;28;20056;-67
2022/06/24 22:05:17;;;;;;;2.60;1.15;;;25.00;33.00;;;;;;20911325;28;20056;-67
2022/06/24 22:15:19;;;;;;;1.92;1.10;;;;;;;;;;20911614;28;20135;-66
2022/06/24 22:25:22;;;;;;;4.30;1.30;;;;;;;;;;20911288;28;20144;-68
2022/06/24 22:35:24;;;;;;;2.85;1.27;;;24.70;34.20;;;;;;20910914;28;20049;-70
2022/06/24 22:45:25;;;;;;;4.18;2.50;;;24.70;34.20;;;;;;20910725;28;20493;-65
2022/06/24 22:55:27;;;;;;;2.67;1.52;;;;;;;;;;20908397;28;20049;-67
2022/06/24 23:05:30;;;;;;;3.75;1.30;;;24.40;34.70;;;;;;20909123;28;20143;-65
2022/06/24 23:15:31;;;;;;;5.43;1.50;;;24.30;34.80;;;;;;20924236;28;20075;-68
2022/06/24 23:25:33;;;;;;;2.08;1.33;;;23.30;36.10;;;;;;20926161;28;20382;-68
2022/06/24 23:35:35;;;;;;;2.47;1.08;;;23.10;36.50;;;;;;20954155;28;20045;-67
2022/06/24 23:45:37;;;;;;;2.22;0.93;;;23.00;36.70;;;;;;20922115;28;20056;-67
2022/06/24 23:55:39;;;;;;;2.35;1.33;;;23.00;36.90;;;;;;20920746;28;20047;-65
